Time;durP1;ratioP1;P1;durP2;ratioP2;P2;SDS_P1;SDS_P2;PMS_P1;PMS_P2;Temp;Humidity;BMP_temperature;BMP_pressure;BME280_temperature;BME280_humidity;BME280_pressure;Samples;Min_cycle;Max_cycle;Signal;HPM_P1;HPM_P2
2022/04/06 00:00:09;;;;;;;5.82;4.60;;;11.60;99.30;;;;;;5078660;28;20029;-87
2022/04/06 00:02:38;;;;;;;6.55;4.90;;;11.60;99.20;;;;;;5080602;28;20035;-88
2022/04/06 00:05:04;;;;;;;5.50;4.20;;;11.60;99.40;;;;;;5058185;28;20032;-86
2022/04/06 00:07:29;;;;;;;5.22;4.40;;;11.60;99.60;;;;;;5074488;28;20032;-87
2022/04/06 00:09:55;;;;;;;4.95;4.30;;;11.60;99.40;;;;;;5073195;28;20016;-88
2022/04/06 00:12:21;;;;;;;4.97;4.45;;;11.50;99.40;;;;;;5101761;28;20048;-86
2022/04/06 00:14:46;;;;;;;5.63;4.15;;;11.50;99.70;;;;;;5078889;28;20044;-86
2022/04/06 00:17:13;;;;;;;5.93;4.32;;;11.50;99.70;;;;;;5075255;28;20307;-86
2022/04/06 00:19:39;;;;;;;4.38;3.63;;;11.50;99.90;;;;;;5064725;28;20472;-86
2022/04/06 00:22:05;;;;;;;4.93;3.63;;;11.50;99.90;;;;;;5086084;28;20089;-85
2022/04/06 00:24:30;;;;;;;4.03;3.00;;;11.40;99.90;;;;;;5087816;28;20088;-87
2022/04/06 00:26:56;;;;;;;5.18;3.63;;;11.40;99.90;;;;;;5071002;28;20024;-85
2022/04/06 00:29:22;;;;;;;5.32;4.00;;;11.40;99.90;;;;;;5054339;28;20021;-85
2022/04/06 00:31:48;;;;;;;7.13;3.90;;;11.30;99.90;;;;;;5065557;28;20032;-85
2022/04/06 00:34:14;;;;;;;4.97;4.15;;;11.30;99.90;;;;;;5054440;28;20016;-86
2022/04/06 00:36:39;;;;;;;5.55;4.10;;;11.30;99.90;;;;;;5081385;28;20044;-86
2022/04/06 00:39:05;;;;;;;4.57;3.80;;;11.30;99.90;;;;;;5062224;28;20032;-86
2022/04/06 00:41:30;;;;;;;6.07;4.03;;;11.30;99.90;;;;;;5060060;28;20020;-86
2022/04/06 00:44:15;;;;;;;4.78;3.83;;;11.20;99.90;;;;;;5054310;28;20029;-86
2022/04/06 00:46:45;;;;;;;4.60;3.55;;;11.20;99.90;;;;;;5050790;28;20020;-85
2022/04/06 00:49:14;;;;;;;5.70;4.25;;;11.20;99.90;;;;;;5054091;28;20028;-85
2022/04/06 00:51:48;;;;;;;5.03;4.03;;;11.10;99.90;;;;;;5049605;28;20499;-86
2022/04/06 00:54:16;;;;;;;5.00;3.75;;;11.20;99.90;;;;;;5062769;28;20032;-85
2022/04/06 00:56:44;;;;;;;4.78;4.13;;;11.20;99.90;;;;;;5076130;28;20050;-85
2022/04/06 00:59:10;;;;;;;4.95;4.00;;;11.20;99.90;;;;;;5078311;28;20036;-84
2022/04/06 01:01:36;;;;;;;6.63;4.13;;;11.10;99.90;;;;;;5055918;28;20020;-84
2022/04/06 01:04:02;;;;;;;6.20;3.75;;;11.10;99.90;;;;;;5059186;28;20123;-85
2022/04/06 01:06:28;;;;;;;6.60;4.95;;;11.00;99.90;;;;;;5075992;28;20025;-85
2022/04/06 01:08:53;;;;;;;6.53;4.88;;;10.90;99.90;;;;;;5065889;28;20107;-85
2022/04/06 01:11:24;;;;;;;5.95;4.85;;;11.00;99.90;;;;;;5075617;28;20481;-86
2022/04/06 01:13:51;;;;;;;7.43;5.55;;;11.00;99.90;;;;;;5074435;28;20052;-85
2022/04/06 01:16:18;;;;;;;7.07;5.15;;;10.90;99.90;;;;;;5054034;28;20354;-86
2022/04/06 01:18:43;;;;;;;6.05;4.63;;;10.90;99.90;;;;;;5072256;28;20098;-86
2022/04/06 01:21:11;;;;;;;6.00;4.95;;;10.90;99.90;;;;;;5069834;28;20028;-86
2022/04/06 01:23:41;;;;;;;5.57;4.60;;;10.80;99.90;;;;;;5048910;28;20539;-86
2022/04/06 01:26:07;;;;;;;6.55;4.93;;;10.80;99.90;;;;;;5051049;28;20104;-87
2022/04/06 01:28:32;;;;;;;6.32;5.68;;;10.80;99.90;;;;;;5077325;28;20036;-85
2022/04/06 01:30:58;;;;;;;7.10;4.85;;;10.80;99.90;;;;;;5080269;28;20089;-85
2022/04/06 01:33:23;;;;;;;6.78;5.38;;;10.70;99.90;;;;;;5057931;28;20512;-86
2022/04/06 01:35:49;;;;;;;6.60;5.07;;;10.80;99.90;;;;;;5076656;28;20094;-86
2022/04/06 01:38:15;;;;;;;8.18;5.40;;;10.80;99.90;;;;;;5076651;28;20035;-85
2022/04/06 01:40:40;;;;;;;6.28;5.40;;;10.80;99.90;;;;;;5048884;28;20021;-87
2022/04/06 01:43:06;;;;;;;6.70;4.95;;;10.90;99.90;;;;;;5075803;28;20011;-86
2022/04/06 01:45:31;;;;;;;6.13;4.60;;;10.90;99.90;;;;;;5067090;28;20203;-86
2022/04/06 01:47:57;;;;;;;7.88;5.25;;;10.90;99.90;;;;;;5071687;28;20032;-87
2022/04/06 01:53:07;;;;;;;6.53;4.63;;;10.90;99.90;;;;;;5072445;28;20036;-85
2022/04/06 01:55:32;;;;;;;5.85;4.25;;;10.80;99.90;;;;;;5053136;28;20032;-86
2022/04/06 01:57:59;;;;;;;4.28;3.70;;;10.80;99.90;;;;;;5073373;28;20032;-86
2022/04/06 02:00:26;;;;;;;4.82;3.47;;;10.80;99.90;;;;;;5056286;28;20060;-86
2022/04/06 02:02:53;;;;;;;5.22;3.80;;;10.90;99.90;;;;;;5075623;28;20042;-86
2022/04/06 02:05:20;;;;;;;6.43;4.13;;;10.90;99.90;;;;;;5061939;28;20043;-87
2022/04/06 02:07:46;;;;;;;3.75;3.35;;;10.90;99.90;;;;;;5059050;28;20053;-87
2022/04/06 02:10:13;;;;;;;4.82;3.20;;;11.00;99.90;;;;;;5071599;28;20488;-86
2022/04/06 02:12:39;;;;;;;3.72;3.17;;;11.00;99.90;;;;;;5065912;28;20039;-86
2022/04/06 02:15:06;;;;;;;6.10;4.07;;;11.00;99.90;;;;;;5068079;28;20028;-86
2022/04/06 02:17:32;;;;;;;4.93;4.25;;;11.00;99.90;;;;;;5053613;28;20241;-85
2022/04/06 02:19:57;;;;;;;9.13;4.93;;;11.00;99.90;;;;;;5070197;28;20107;-85
2022/04/06 02:22:23;;;;;;;6.18;4.65;;;10.90;99.90;;;;;;5068165;28;20051;-88
2022/04/06 02:24:49;;;;;;;6.50;4.85;;;10.90;99.90;;;;;;5048668;28;20043;-86
2022/04/06 02:27:14;;;;;;;8.70;5.75;;;10.90;99.90;;;;;;5047697;28;20036;-87
2022/04/06 02:29:40;;;;;;;6.75;4.80;;;10.90;99.90;;;;;;5049947;28;20054;-86
2022/04/06 02:32:07;;;;;;;7.22;5.75;;;10.80;99.90;;;;;;5047341;28;20021;-87
2022/04/06 02:34:33;;;;;;;6.22;5.00;;;10.80;99.90;;;;;;5049982;28;20027;-85
2022/04/06 02:36:58;;;;;;;9.93;5.80;;;10.80;99.90;;;;;;5052984;28;20027;-87
2022/04/06 02:39:24;;;;;;;7.10;5.53;;;10.70;99.90;;;;;;5050150;28;20028;-88
2022/04/06 02:41:53;;;;;;;10.80;6.40;;;10.70;99.90;;;;;;5047801;28;20024;-87
2022/04/06 02:44:21;;;;;;;8.75;6.13;;;10.70;99.90;;;;;;5050471;28;20025;-90
2022/04/06 02:46:48;;;;;;;9.65;6.32;;;10.70;99.90;;;;;;5069169;28;20071;-87
2022/04/06 02:49:14;;;;;;;8.70;5.93;;;10.70;99.90;;;;;;5077466;28;20473;-87
2022/04/06 02:51:40;;;;;;;8.45;6.75;;;10.70;99.90;;;;;;5063727;28;20044;-88
2022/04/06 02:54:06;;;;;;;10.20;6.47;;;10.80;99.90;;;;;;5056178;28;20016;-88
2022/04/06 02:56:32;;;;;;;9.10;6.55;;;10.80;99.90;;;;;;5066192;28;20028;-87
2022/04/06 02:58:57;;;;;;;10.30;6.35;;;10.90;99.90;;;;;;5066316;28;20492;-87
2022/04/06 03:01:24;;;;;;;8.18;6.05;;;10.90;99.90;;;;;;5047902;28;20051;-87
2022/04/06 03:03:49;;;;;;;8.52;6.65;;;11.00;99.90;;;;;;5064147;28;20039;-87
2022/04/06 03:06:16;;;;;;;8.82;6.50;;;11.00;99.90;;;;;;5066325;28;20092;-87
2022/04/06 03:08:42;;;;;;;10.73;8.15;;;11.10;99.90;;;;;;5048049;28;20033;-88
2022/04/06 03:11:07;;;;;;;13.27;7.93;;;11.10;99.90;;;;;;5066896;28;20058;-87
2022/04/06 03:13:33;;;;;;;10.73;7.38;;;11.00;99.90;;;;;;5067046;28;20079;-88
2022/04/06 03:15:58;;;;;;;10.38;7.40;;;11.00;99.90;;;;;;5066605;28;20049;-91
2022/04/06 03:18:24;;;;;;;10.88;7.80;;;10.90;99.90;;;;;;5071608;28;20040;-88
2022/04/06 03:20:50;;;;;;;10.93;7.75;;;11.00;99.90;;;;;;5057289;28;20039;-86
2022/04/06 03:23:15;;;;;;;11.73;8.57;;;10.90;99.90;;;;;;5065126;28;20253;-89
2022/04/06 03:25:42;;;;;;;11.25;8.32;;;10.90;99.90;;;;;;5049400;28;20024;-88
2022/04/06 03:28:09;;;;;;;11.77;9.23;;;10.80;99.90;;;;;;5069345;28;20524;-88
2022/04/06 03:30:35;;;;;;;15.15;9.60;;;10.80;99.90;;;;;;5071188;28;20104;-86
2022/04/06 03:33:00;;;;;;;12.02;8.75;;;10.80;99.90;;;;;;5060169;28;20063;-86
2022/04/06 03:35:26;;;;;;;14.25;9.13;;;10.80;99.90;;;;;;5062443;28;20537;-87
2022/04/06 03:37:52;;;;;;;15.07;8.07;;;10.80;99.90;;;;;;5075829;28;20060;-88
2022/04/06 03:40:17;;;;;;;15.55;8.82;;;10.80;99.90;;;;;;5063424;28;20025;-87
2022/04/06 03:42:43;;;;;;;13.10;8.18;;;10.70;99.90;;;;;;5080467;28;20041;-87
2022/04/06 03:45:09;;;;;;;11.95;7.00;;;10.80;99.90;;;;;;5073297;28;20032;-87
2022/04/06 03:47:36;;;;;;;10.13;7.07;;;10.80;99.90;;;;;;5096889;28;20076;-87
2022/04/06 03:50:03;;;;;;;10.05;6.50;;;10.80;99.90;;;;;;5088430;28;20019;-87
2022/04/06 03:52:29;;;;;;;11.02;6.38;;;10.70;99.90;;;;;;5074175;28;20048;-86
2022/04/06 03:54:55;;;;;;;14.68;5.60;;;10.80;99.90;;;;;;5051350;28;20533;-85
2022/04/06 03:57:21;;;;;;;9.40;5.05;;;10.70;99.90;;;;;;5050508;28;20639;-88
2022/04/06 03:59:46;;;;;;;8.77;4.25;;;10.70;99.90;;;;;;5068483;28;20453;-86
2022/04/06 04:02:12;;;;;;;9.02;3.92;;;10.60;99.90;;;;;;5051193;28;20028;-86
2022/04/06 04:04:37;;;;;;;7.07;4.35;;;10.60;99.90;;;;;;5076302;28;20038;-85
2022/04/06 04:07:03;;;;;;;8.45;3.65;;;10.60;99.90;;;;;;5052408;28;20032;-86
2022/04/06 04:09:29;;;;;;;9.77;4.80;;;10.60;99.90;;;;;;5060910;28;20040;-87
2022/04/06 04:11:58;;;;;;;9.85;4.13;;;10.60;99.90;;;;;;5069618;28;20397;-87
2022/04/06 04:14:24;;;;;;;5.07;3.10;;;10.70;99.90;;;;;;5053917;28;20082;-86
2022/04/06 04:16:50;;;;;;;9.35;3.33;;;10.70;99.90;;;;;;5083389;28;20028;-86
2022/04/06 04:19:16;;;;;;;4.03;2.67;;;10.60;99.90;;;;;;5077766;28;20021;-87
2022/04/06 04:21:42;;;;;;;8.18;3.60;;;10.50;99.90;;;;;;5084053;28;20024;-86
2022/04/06 04:24:09;;;;;;;7.78;3.22;;;10.60;99.90;;;;;;5060376;28;20037;-86
2022/04/06 04:26:36;;;;;;;9.18;3.05;;;10.60;99.90;;;;;;5066084;28;20459;-86
2022/04/06 04:29:05;;;;;;;3.88;2.80;;;10.60;99.90;;;;;;5049987;28;20032;-86
2022/04/06 04:31:37;;;;;;;5.38;3.22;;;10.60;99.90;;;;;;5055653;28;20027;-87
2022/04/06 04:34:02;;;;;;;9.67;3.47;;;10.60;99.90;;;;;;5070328;28;20039;-87
2022/04/06 04:36:29;;;;;;;9.30;3.42;;;10.60;99.90;;;;;;5074070;28;20036;-85
2022/04/06 04:38:55;;;;;;;8.70;3.70;;;10.70;99.90;;;;;;5050101;28;20051;-87
2022/04/06 04:41:22;;;;;;;9.40;4.30;;;10.70;99.90;;;;;;5049789;28;20029;-86
2022/04/06 04:43:50;;;;;;;5.53;3.00;;;10.70;99.90;;;;;;5069192;28;20027;-85
2022/04/06 04:46:16;;;;;;;6.07;3.28;;;10.70;99.90;;;;;;5066175;28;20074;-87
2022/04/06 04:48:42;;;;;;;7.90;3.25;;;10.70;99.80;;;;;;5069408;28;20725;-85
2022/04/06 04:51:07;;;;;;;8.07;3.22;;;10.70;99.70;;;;;;5080998;28;20108;-86
2022/04/06 04:53:33;;;;;;;9.55;3.45;;;10.70;99.90;;;;;;5057520;28;20770;-86
2022/04/06 04:55:59;;;;;;;7.63;3.65;;;10.80;99.90;;;;;;5048099;28;20564;-84
2022/04/06 04:58:26;;;;;;;10.52;3.55;;;10.80;99.80;;;;;;5063336;28;20050;-86
2022/04/06 05:00:53;;;;;;;6.93;3.85;;;10.90;99.80;;;;;;5066962;28;20024;-86
2022/04/06 05:03:18;;;;;;;12.05;4.13;;;11.00;99.80;;;;;;5067867;28;20021;-86
2022/04/06 05:05:44;;;;;;;8.20;3.92;;;10.90;99.80;;;;;;5058840;28;20051;-85
2022/04/06 05:08:10;;;;;;;9.05;4.25;;;11.00;99.80;;;;;;5050403;28;20091;-87
2022/04/06 05:10:36;;;;;;;9.40;5.10;;;11.00;99.70;;;;;;5058009;28;20048;-85
2022/04/06 05:13:03;;;;;;;8.27;4.97;;;11.00;99.70;;;;;;5069201;28;20028;-85
2022/04/06 05:15:29;;;;;;;9.18;4.95;;;11.00;99.90;;;;;;5073176;28;20026;-87
2022/04/06 05:17:54;;;;;;;8.13;5.25;;;11.10;99.90;;;;;;5061361;28;20024;-88
2022/04/06 05:20:21;;;;;;;8.85;5.65;;;11.10;99.90;;;;;;5070072;28;20033;-86
2022/04/06 05:22:46;;;;;;;14.98;5.43;;;11.10;99.90;;;;;;5070892;28;20025;-86
2022/04/06 05:25:12;;;;;;;7.85;5.45;;;11.10;99.90;;;;;;5073974;28;20040;-86
2022/04/06 05:27:50;;;;;;;8.55;5.30;;;11.20;99.90;;;;;;5064135;28;21884;-86
2022/04/06 05:30:18;;;;;;;10.45;5.97;;;11.20;99.90;;;;;;5061419;28;20139;-85
2022/04/06 05:32:45;;;;;;;8.57;5.30;;;11.30;99.90;;;;;;5066185;28;20025;-85
2022/04/06 05:35:12;;;;;;;11.00;6.20;;;11.30;99.90;;;;;;5052285;28;20083;-86
2022/04/06 05:37:39;;;;;;;10.05;6.32;;;11.30;99.90;;;;;;5060905;28;20044;-86
2022/04/06 05:40:06;;;;;;;7.82;6.18;;;11.30;99.80;;;;;;5064432;28;20028;-85
2022/04/06 05:42:32;;;;;;;13.07;6.47;;;11.40;99.80;;;;;;5068003;28;20720;-86
2022/04/06 05:44:57;;;;;;;12.57;7.07;;;11.50;99.70;;;;;;5077510;28;20637;-85
2022/04/06 05:47:23;;;;;;;9.20;6.78;;;11.50;99.20;;;;;;5053689;28;20116;-86
2022/04/06 05:49:49;;;;;;;10.07;5.40;;;11.50;99.30;;;;;;5071820;28;20028;-85
2022/04/06 05:52:14;;;;;;;9.52;5.22;;;11.50;99.30;;;;;;5068530;28;20033;-85
2022/04/06 05:54:40;;;;;;;9.05;6.43;;;11.50;99.10;;;;;;5052784;28;20028;-85
2022/04/06 05:57:06;;;;;;;7.72;5.38;;;11.50;99.10;;;;;;5076974;28;20106;-85
2022/04/06 05:59:31;;;;;;;9.60;5.53;;;11.40;99.20;;;;;;5067241;28;20078;-86
2022/04/06 06:01:57;;;;;;;8.15;5.35;;;11.40;99.20;;;;;;5048367;28;20026;-86
2022/04/06 06:04:22;;;;;;;8.05;4.45;;;11.40;99.30;;;;;;5062008;28;20749;-85
2022/04/06 06:06:48;;;;;;;7.47;4.45;;;11.30;99.40;;;;;;5048876;28;20082;-85
2022/04/06 06:09:14;;;;;;;9.65;5.32;;;11.30;99.30;;;;;;5067147;28;20396;-85
2022/04/06 06:11:39;;;;;;;7.63;5.50;;;11.30;99.30;;;;;;5047934;28;20020;-86
2022/04/06 06:14:06;;;;;;;9.82;6.25;;;11.30;99.30;;;;;;5049940;28;20024;-85
2022/04/06 06:16:31;;;;;;;9.93;5.78;;;11.30;99.30;;;;;;5050276;28;20024;-85
2022/04/06 06:18:57;;;;;;;10.00;4.90;;;11.30;99.20;;;;;;5066915;28;20728;-85
2022/04/06 06:21:23;;;;;;;8.23;4.78;;;11.40;99.30;;;;;;5056369;28;20025;-84
2022/04/06 06:23:49;;;;;;;9.48;5.68;;;11.40;99.10;;;;;;5077542;28;20037;-86
2022/04/06 06:26:14;;;;;;;12.07;4.80;;;11.40;99.10;;;;;;5077901;28;20089;-86
2022/04/06 06:28:40;;;;;;;5.07;4.53;;;11.50;99.10;;;;;;5080840;28;20040;-84
2022/04/06 06:31:06;;;;;;;7.82;5.40;;;11.50;99.00;;;;;;5058606;28;20017;-83
2022/04/06 06:33:31;;;;;;;7.55;4.20;;;11.50;98.90;;;;;;5076948;28;20028;-84
2022/04/06 06:35:57;;;;;;;7.25;4.40;;;11.50;98.90;;;;;;5049391;28;20028;-84
2022/04/06 06:38:22;;;;;;;5.93;3.90;;;11.50;98.80;;;;;;5069118;28;20032;-83
2022/04/06 06:40:48;;;;;;;8.10;4.68;;;11.60;98.80;;;;;;5050346;28;20512;-84
2022/04/06 06:43:15;;;;;;;7.47;4.50;;;11.60;98.80;;;;;;5048698;28;20697;-84
2022/04/06 06:45:40;;;;;;;8.32;4.85;;;11.50;98.80;;;;;;5068966;28;20031;-84
2022/04/06 06:48:06;;;;;;;7.30;4.47;;;11.50;98.80;;;;;;5056219;28;20020;-83
2022/04/06 06:50:33;;;;;;;9.07;4.90;;;11.50;98.90;;;;;;5066910;28;20021;-84
2022/04/06 06:52:59;;;;;;;7.07;5.05;;;11.50;99.00;;;;;;5065045;28;20028;-83
2022/04/06 06:55:24;;;;;;;5.93;4.28;;;11.60;98.80;;;;;;5073808;28;20261;-83
2022/04/06 06:57:50;;;;;;;6.60;4.30;;;11.60;98.70;;;;;;5072716;28;20025;-84
2022/04/06 07:00:16;;;;;;;5.35;4.20;;;11.60;98.70;;;;;;5075446;28;20092;-85
2022/04/06 07:02:42;;;;;;;7.47;5.05;;;11.60;98.50;;;;;;5072284;28;20044;-84
2022/04/06 07:05:09;;;;;;;6.50;4.30;;;11.60;98.50;;;;;;5063934;28;20036;-85
2022/04/06 07:07:52;;;;;;;6.80;4.85;;;11.60;98.40;;;;;;5047459;28;20063;-84
2022/04/06 07:10:18;;;;;;;;;;;11.60;98.40;;;;;;5065212;28;20047;-84
2022/04/06 07:12:43;;;;;;;9.70;4.00;;;11.70;98.30;;;;;;5065994;28;20339;-84
2022/04/06 07:15:10;;;;;;;6.50;4.40;;;11.70;98.20;;;;;;5066771;28;20035;-84
2022/04/06 07:17:35;;;;;;;7.13;5.13;;;11.70;98.10;;;;;;5058102;28;20020;-84
2022/04/06 07:20:01;;;;;;;7.80;4.70;;;11.80;98.20;;;;;;5044335;28;20039;-83
2022/04/06 07:22:26;;;;;;;7.28;4.60;;;11.80;98.20;;;;;;5065796;28;20028;-84
2022/04/06 07:24:52;;;;;;;6.43;3.80;;;11.80;98.10;;;;;;5048545;28;20024;-84
2022/04/06 07:27:17;;;;;;;7.88;4.22;;;11.80;97.90;;;;;;5047642;28;20032;-84
2022/04/06 07:29:43;;;;;;;8.93;4.47;;;11.90;98.10;;;;;;5048660;28;20463;-84
2022/04/06 07:32:09;;;;;;;7.32;4.28;;;11.90;97.90;;;;;;5066705;28;20029;-83
2022/04/06 07:34:34;;;;;;;7.60;4.68;;;11.90;97.80;;;;;;5049869;28;20036;-84
2022/04/06 07:37:00;;;;;;;11.85;4.60;;;11.90;97.70;;;;;;5067619;28;20028;-83
2022/04/06 07:39:27;;;;;;;8.82;4.82;;;12.00;97.70;;;;;;5067841;28;20033;-83
2022/04/06 07:41:56;;;;;;;7.68;4.30;;;12.00;97.70;;;;;;5054427;28;20020;-83
2022/04/06 07:44:22;;;;;;;7.72;4.63;;;12.10;97.20;;;;;;5049614;28;20082;-84
2022/04/06 07:46:47;;;;;;;6.97;5.00;;;12.10;97.20;;;;;;5067261;28;20028;-84
2022/04/06 07:49:13;;;;;;;7.75;4.35;;;12.20;96.80;;;;;;5049063;28;20081;-83
2022/04/06 07:51:38;;;;;;;7.53;4.30;;;12.20;96.20;;;;;;5042625;28;20027;-83
2022/04/06 07:54:04;;;;;;;7.60;4.32;;;12.30;96.40;;;;;;5053604;28;20131;-83
2022/04/06 07:56:29;;;;;;;7.32;3.90;;;12.30;96.10;;;;;;5049814;28;20040;-84
2022/04/06 07:58:55;;;;;;;9.05;4.90;;;12.40;96.00;;;;;;5066600;28;20032;-83
2022/04/06 08:01:21;;;;;;;5.95;3.95;;;12.40;96.10;;;;;;5048863;28;20040;-82
2022/04/06 08:03:46;;;;;;;5.78;4.00;;;12.50;95.50;;;;;;5067667;28;20062;-83
2022/04/06 08:06:12;;;;;;;6.72;4.13;;;12.50;95.20;;;;;;5049119;28;20040;-84
2022/04/06 08:08:37;;;;;;;7.65;4.57;;;12.50;95.60;;;;;;5067514;28;20028;-84
2022/04/06 08:11:05;;;;;;;6.85;3.55;;;12.50;95.90;;;;;;5048207;28;20452;-85
2022/04/06 08:13:34;;;;;;;6.35;3.30;;;12.60;95.10;;;;;;5068099;28;20499;-84
2022/04/06 08:15:59;;;;;;;8.65;3.90;;;12.60;94.70;;;;;;5058765;28;20032;-83
2022/04/06 08:18:25;;;;;;;7.88;3.88;;;12.70;94.70;;;;;;5068452;28;20063;-84
2022/04/06 08:20:51;;;;;;;7.00;3.72;;;12.70;94.60;;;;;;5069540;28;20358;-83
2022/04/06 08:23:19;;;;;;;6.22;3.88;;;12.70;94.20;;;;;;5075631;28;20039;-84
2022/04/06 08:25:44;;;;;;;6.55;3.72;;;12.70;94.10;;;;;;5092306;28;20020;-84
2022/04/06 08:28:10;;;;;;;9.00;3.90;;;12.70;94.20;;;;;;5080182;28;20360;-84
2022/04/06 08:30:40;;;;;;;8.35;4.15;;;12.80;93.80;;;;;;5054165;28;20031;-84
2022/04/06 08:33:06;;;;;;;6.07;4.20;;;12.80;94.00;;;;;;5053643;28;20033;-84
2022/04/06 08:35:31;;;;;;;5.10;3.22;;;12.80;94.30;;;;;;5072497;28;20098;-84
2022/04/06 08:37:57;;;;;;;4.25;3.38;;;12.80;93.50;;;;;;5072325;28;20453;-84
2022/04/06 08:40:22;;;;;;;5.68;3.83;;;12.80;93.70;;;;;;5072818;28;20507;-84
2022/04/06 08:42:48;;;;;;;4.50;3.58;;;12.90;93.70;;;;;;5071202;28;20029;-84
2022/04/06 08:45:16;;;;;;;10.95;3.60;;;12.90;93.70;;;;;;5052711;28;20029;-83
2022/04/06 08:47:41;;;;;;;7.60;3.35;;;12.90;93.50;;;;;;5072061;28;20046;-85
2022/04/06 08:50:07;;;;;;;6.53;3.40;;;13.00;93.50;;;;;;5071282;28;20115;-85
2022/04/06 08:52:34;;;;;;;7.30;3.22;;;13.10;93.00;;;;;;5053263;28;20412;-84
2022/04/06 08:55:00;;;;;;;7.22;3.80;;;13.10;92.90;;;;;;5056114;28;20415;-84
2022/04/06 08:57:27;;;;;;;4.75;2.90;;;13.20;92.70;;;;;;5070695;28;20073;-83
2022/04/06 08:59:53;;;;;;;6.63;4.18;;;13.30;92.80;;;;;;5052861;28;20357;-84
2022/04/06 09:02:20;;;;;;;10.02;3.67;;;13.50;92.60;;;;;;5070135;28;20035;-85
2022/04/06 09:04:51;;;;;;;9.18;4.25;;;13.60;92.20;;;;;;5053124;28;20017;-85
2022/04/06 09:07:19;;;;;;;5.10;3.42;;;13.60;92.30;;;;;;5048736;28;20481;-85
2022/04/06 09:09:53;;;;;;;10.60;3.50;;;13.60;92.20;;;;;;5063396;28;20037;-84
2022/04/06 09:12:21;;;;;;;5.10;3.22;;;13.80;91.80;;;;;;5062169;28;20021;-84
2022/04/06 09:14:47;;;;;;;13.23;8.48;;;13.90;91.10;;;;;;5071090;28;20059;-85
2022/04/06 09:17:19;;;;;;;10.88;3.85;;;13.90;91.10;;;;;;5070222;28;20108;-85
2022/04/06 09:19:47;;;;;;;11.57;5.47;;;14.00;91.10;;;;;;5070460;28;20038;-85
2022/04/06 09:22:12;;;;;;;7.57;3.78;;;14.00;90.80;;;;;;5068068;28;20056;-84
2022/04/06 09:24:38;;;;;;;6.07;3.08;;;14.00;90.60;;;;;;5070888;28;20063;-84
2022/04/06 09:27:04;;;;;;;5.20;3.50;;;14.10;90.30;;;;;;5069531;28;20345;-84
2022/04/06 09:29:31;;;;;;;6.03;3.53;;;14.30;90.60;;;;;;5051722;28;20032;-85
2022/04/06 09:32:06;;;;;;;6.88;3.10;;;14.40;90.10;;;;;;5050959;28;20064;-85
2022/04/06 09:34:33;;;;;;;3.78;2.47;;;14.60;89.10;;;;;;5052462;28;20024;-84
2022/04/06 09:36:58;;;;;;;6.15;3.35;;;14.60;89.50;;;;;;5068446;28;20032;-84
2022/04/06 09:39:46;;;;;;;8.73;3.08;;;14.60;88.60;;;;;;5069243;28;20048;-84
2022/04/06 09:42:21;;;;;;;3.80;2.50;;;14.50;89.60;;;;;;5051250;28;20033;-84
2022/04/06 09:47:44;;;;;;;5.65;2.55;;;14.30;88.60;;;;;;5069155;28;20032;-85
2022/04/06 09:50:20;;;;;;;3.95;2.15;;;14.30;89.00;;;;;;5050480;28;20251;-85
2022/04/06 09:52:48;;;;;;;4.03;2.83;;;14.20;88.30;;;;;;5069155;28;20016;-83
2022/04/06 09:55:16;;;;;;;5.03;2.80;;;14.20;88.00;;;;;;5068947;28;20029;-85
2022/04/06 09:57:52;;;;;;;7.47;2.78;;;14.20;89.00;;;;;;5069661;28;20469;-84
2022/04/06 10:00:23;;;;;;;7.45;3.90;;;14.30;88.00;;;;;;5050288;28;20020;-85
2022/04/06 10:03:07;;;;;;;4.20;2.95;;;14.40;90.00;;;;;;5069215;28;20027;-84
2022/04/06 10:05:34;;;;;;;8.93;3.10;;;14.50;88.20;;;;;;5051417;28;20024;-85
2022/04/06 10:08:08;;;;;;;6.20;2.55;;;14.80;88.60;;;;;;5069374;28;20389;-85
2022/04/06 10:10:36;;;;;;;2.75;1.73;;;14.90;85.70;;;;;;5069188;28;20035;-85
2022/04/06 10:13:04;;;;;;;3.60;1.90;;;15.10;85.40;;;;;;5068363;28;20029;-86
2022/04/06 10:15:30;;;;;;;3.22;1.45;;;15.20;82.50;;;;;;5050862;28;20028;-84
2022/04/06 10:17:55;;;;;;;3.70;1.88;;;15.20;82.10;;;;;;5050824;28;20051;-85
2022/04/06 10:20:38;;;;;;;1.80;1.25;;;15.10;78.50;;;;;;5051116;28;20421;-84
2022/04/06 10:23:30;;;;;;;4.65;1.70;;;15.10;78.80;;;;;;5073046;28;20100;-84
2022/04/06 10:26:10;;;;;;;4.07;1.63;;;15.10;77.70;;;;;;5041919;28;20027;-84
2022/04/06 10:28:38;;;;;;;2.67;1.30;;;14.80;78.70;;;;;;5051305;28;20070;-84
2022/04/06 10:31:17;;;;;;;5.00;1.80;;;14.80;80.50;;;;;;5061458;28;20028;-84
2022/04/06 10:33:43;;;;;;;2.45;1.02;;;14.70;78.80;;;;;;5050712;28;20047;-85
2022/04/06 10:36:16;;;;;;;3.35;0.85;;;14.70;80.30;;;;;;5067034;28;20032;-84
2022/04/06 10:39:05;;;;;;;3.88;1.55;;;14.70;77.60;;;;;;5068925;28;20033;-85
2022/04/06 10:41:32;;;;;;;2.72;0.95;;;14.70;77.10;;;;;;5050090;28;20028;-84
2022/04/06 10:43:57;;;;;;;4.63;1.42;;;14.60;77.70;;;;;;5030880;28;20029;-85
2022/04/06 10:46:38;;;;;;;2.63;1.13;;;14.70;76.90;;;;;;5066724;28;20028;-85
2022/04/06 10:49:06;;;;;;;2.22;1.48;;;14.90;75.70;;;;;;5050382;28;20032;-85
2022/04/06 10:51:46;;;;;;;2.70;1.50;;;15.00;76.70;;;;;;5068235;28;20028;-86
2022/04/06 10:54:15;;;;;;;6.55;1.52;;;15.10;76.50;;;;;;5065358;28;20115;-85
2022/04/06 10:56:49;;;;;;;4.20;1.50;;;15.20;76.80;;;;;;5068342;28;20056;-85
2022/04/06 10:59:19;;;;;;;3.60;1.10;;;15.20;75.90;;;;;;5050340;28;20028;-85
2022/04/06 11:01:46;;;;;;;1.88;1.40;;;15.30;77.10;;;;;;5068592;28;20036;-86
2022/04/06 11:04:22;;;;;;;4.47;1.80;;;15.60;75.50;;;;;;5050150;28;20029;-85
2022/04/06 11:06:53;;;;;;;2.13;1.00;;;15.60;74.60;;;;;;5067315;28;20158;-85
2022/04/06 11:12:21;;;;;;;4.30;1.30;;;15.50;74.90;;;;;;5067822;28;20702;-86
2022/04/06 11:14:49;;;;;;;5.10;1.63;;;15.30;74.90;;;;;;5068111;28;20484;-85
2022/04/06 11:17:42;;;;;;;6.72;1.00;;;15.20;75.60;;;;;;5067443;28;20028;-85
2022/04/06 11:20:18;;;;;;;3.60;1.10;;;15.10;75.90;;;;;;5068249;28;20032;-85
2022/04/06 11:22:53;;;;;;;2.65;0.90;;;15.00;76.00;;;;;;5066734;28;20016;-85
2022/04/06 11:25:21;;;;;;;1.80;0.82;;;15.10;77.50;;;;;;5049622;28;20097;-84
2022/04/06 11:27:47;;;;;;;3.58;1.05;;;15.10;76.40;;;;;;5054660;28;20077;-86
2022/04/06 11:30:18;;;;;;;11.20;1.10;;;15.10;76.30;;;;;;5056803;28;20074;-84
2022/04/06 11:32:57;;;;;;;1.90;0.60;;;15.20;76.00;;;;;;5049453;28;20030;-84
2022/04/06 11:35:36;;;;;;;9.93;1.10;;;15.40;78.00;;;;;;5067634;28;20024;-84
2022/04/06 11:38:06;;;;;;;4.88;1.00;;;15.60;76.10;;;;;;5067209;28;20025;-83
2022/04/06 11:40:33;;;;;;;2.60;0.90;;;15.90;75.40;;;;;;5050628;28;20021;-85
2022/04/06 11:43:04;;;;;;;2.58;0.70;;;16.10;73.70;;;;;;5063848;28;20033;-85
2022/04/06 11:45:44;;;;;;;4.30;0.70;;;16.00;72.40;;;;;;5072111;28;20040;-84
2022/04/06 11:48:15;;;;;;;1.55;0.80;;;16.10;72.40;;;;;;5055238;28;20313;-84
2022/04/06 11:50:43;;;;;;;2.95;0.60;;;16.10;72.50;;;;;;5067590;28;20071;-84
2022/04/06 11:53:18;;;;;;;2.35;1.17;;;16.00;71.90;;;;;;5069802;28;20646;-84
2022/04/06 11:55:48;;;;;;;2.83;0.80;;;16.00;72.90;;;;;;5053360;28;20107;-85
2022/04/06 11:58:30;;;;;;;3.90;2.00;;;15.80;73.30;;;;;;5071239;28;20017;-85
2022/04/06 12:01:00;;;;;;;1.73;1.00;;;15.70;73.20;;;;;;5052786;28;20036;-84
2022/04/06 12:03:33;;;;;;;2.53;0.85;;;15.70;74.50;;;;;;5071393;28;20029;-85
2022/04/06 12:05:59;;;;;;;1.90;0.65;;;15.70;73.50;;;;;;5053141;28;20479;-85
2022/04/06 12:08:25;;;;;;;5.40;1.08;;;15.70;73.00;;;;;;5053571;28;20032;-85
2022/04/06 12:10:52;;;;;;;3.75;1.00;;;15.80;73.90;;;;;;5071227;28;20047;-85
2022/04/06 12:13:19;;;;;;;3.38;0.90;;;15.80;74.80;;;;;;5053703;28;20208;-85
2022/04/06 12:15:48;;;;;;;3.83;1.10;;;15.80;73.90;;;;;;5070208;28;20360;-85
2022/04/06 12:18:24;;;;;;;3.60;0.88;;;16.00;73.70;;;;;;5053383;28;20032;-85
2022/04/06 12:20:50;;;;;;;2.22;0.80;;;16.10;73.40;;;;;;5083452;28;20097;-86
2022/04/06 12:23:17;;;;;;;2.58;0.90;;;16.30;74.20;;;;;;5071340;28;20027;-86
2022/04/06 12:25:43;;;;;;;3.85;0.80;;;16.50;75.20;;;;;;5071002;28;20107;-86
2022/04/06 12:28:23;;;;;;;3.45;0.77;;;16.70;72.90;;;;;;5071682;28;20465;-87
2022/04/06 12:30:57;;;;;;;2.05;1.00;;;16.80;71.70;;;;;;5071085;28;20103;-86
2022/04/06 12:33:51;;;;;;;2.08;1.02;;;16.70;71.90;;;;;;5053300;28;20100;-86
2022/04/06 12:36:24;;;;;;;3.50;1.13;;;16.80;72.10;;;;;;5070026;28;20028;-86
2022/04/06 12:38:58;;;;;;;6.00;1.23;;;16.70;72.00;;;;;;5058007;28;20034;-85
2022/04/06 12:41:25;;;;;;;2.03;0.85;;;16.70;72.00;;;;;;5052429;28;20020;-86
2022/04/06 12:43:51;;;;;;;6.13;1.52;;;16.80;72.70;;;;;;5054033;28;20039;-85
2022/04/06 12:46:36;;;;;;;2.17;0.93;;;16.90;72.20;;;;;;5070057;28;20028;-86
2022/04/06 12:49:18;;;;;;;2.95;1.15;;;16.90;73.50;;;;;;5053114;28;20735;-85
2022/04/06 12:51:44;;;;;;;13.03;1.60;;;16.90;71.20;;;;;;5083695;28;20149;-85
2022/04/06 12:54:09;;;;;;;5.22;1.70;;;16.90;71.90;;;;;;5071949;28;20107;-85
2022/04/06 12:56:35;;;;;;;3.72;1.38;;;16.90;71.10;;;;;;5051832;28;20031;-84